Time;durP1;ratioP1;P1;durP2;ratioP2;P2;SDS_P1;SDS_P2;PMS_P1;PMS_P2;Temp;Humidity;BMP_temperature;BMP_pressure;BME280_temperature;BME280_humidity;BME280_pressure;Samples;Min_cycle;Max_cycle;Signal;HPM_P1;HPM_P2
2020/12/06 00:01:37;;;;;;;22.65;16.17;;;4.70;99.90;;;;;;5036427;28;20192;-85
2020/12/06 00:04:05;;;;;;;22.25;17.92;;;4.80;99.90;;;;;;5049240;28;20270;-85
2020/12/06 00:06:32;;;;;;;23.67;17.75;;;4.80;99.90;;;;;;5035441;28;20196;-86
2020/12/06 00:08:59;;;;;;;22.58;17.42;;;4.50;99.90;;;;;;5031345;28;20205;-86
2020/12/06 00:11:25;;;;;;;24.48;18.80;;;5.00;99.90;;;;;;5031760;28;20258;-86
2020/12/06 00:13:52;;;;;;;22.45;17.88;;;4.60;99.90;;;;;;5037661;28;20208;-86
2020/12/06 00:16:20;;;;;;;24.23;16.05;;;4.70;99.90;;;;;;5042346;28;20205;-86
2020/12/06 00:18:47;;;;;;;25.02;18.52;;;4.80;99.90;;;;;;5036057;28;20554;-85
2020/12/06 00:21:16;;;;;;;25.30;18.30;;;4.50;99.90;;;;;;5036328;28;20224;-85
2020/12/06 00:23:42;;;;;;;23.33;17.60;;;4.40;99.90;;;;;;5034880;28;20181;-86
2020/12/06 00:26:09;;;;;;;20.77;17.35;;;4.30;99.90;;;;;;5050837;28;20200;-85
2020/12/06 00:28:36;;;;;;;22.05;18.13;;;4.50;99.90;;;;;;5048523;28;20710;-85
2020/12/06 00:31:02;;;;;;;23.92;17.73;;;5.10;99.90;;;;;;5048171;28;20196;-85
2020/12/06 00:33:29;;;;;;;24.50;17.55;;;4.70;99.90;;;;;;5050139;28;20242;-85
2020/12/06 00:35:55;;;;;;;23.95;17.80;;;4.70;99.90;;;;;;5037966;28;20606;-85
2020/12/06 00:38:23;;;;;;;22.50;18.92;;;5.00;99.90;;;;;;5044852;28;20258;-85
2020/12/06 00:40:49;;;;;;;21.33;16.35;;;4.90;99.90;;;;;;5046353;28;20750;-85
2020/12/06 00:43:16;;;;;;;25.40;19.00;;;5.00;99.90;;;;;;5040358;28;20196;-85
2020/12/06 00:45:42;;;;;;;21.33;16.27;;;5.20;99.90;;;;;;5039356;28;20198;-85
2020/12/06 00:48:09;;;;;;;24.50;18.27;;;5.10;99.90;;;;;;5030933;28;20859;-84
2020/12/06 00:50:35;;;;;;;26.50;19.35;;;5.10;99.90;;;;;;5039027;28;20192;-85
2020/12/06 00:53:01;;;;;;;23.00;16.50;;;5.20;99.90;;;;;;5049848;28;20588;-85
2020/12/06 00:55:29;;;;;;;23.33;17.75;;;5.20;99.90;;;;;;5049991;28;20645;-85
2020/12/06 00:57:55;;;;;;;23.00;18.23;;;5.20;99.90;;;;;;5040477;28;20203;-85
2020/12/06 01:00:22;;;;;;;23.65;18.33;;;5.40;99.90;;;;;;5037074;28;20253;-85
2020/12/06 01:02:48;;;;;;;25.55;18.10;;;5.20;99.90;;;;;;5036524;28;20197;-86
2020/12/06 01:05:16;;;;;;;26.98;14.10;;;5.20;99.90;;;;;;5034537;28;20649;-85
2020/12/06 01:07:42;;;;;;;17.80;11.93;;;5.20;99.90;;;;;;5050024;28;20210;-85
2020/12/06 01:10:10;;;;;;;21.98;12.73;;;5.10;99.90;;;;;;5042737;28;20196;-85
2020/12/06 01:12:39;;;;;;;15.43;11.77;;;5.00;99.90;;;;;;5029723;28;20250;-85
2020/12/06 01:15:06;;;;;;;15.85;11.73;;;5.10;99.90;;;;;;5031364;28;20270;-85
2020/12/06 01:17:33;;;;;;;18.25;12.90;;;5.10;99.90;;;;;;5049324;28;20188;-85
2020/12/06 01:19:59;;;;;;;19.63;13.60;;;5.30;99.90;;;;;;5048120;28;20281;-85
2020/12/06 01:22:26;;;;;;;17.58;13.05;;;5.10;99.90;;;;;;5029983;28;20197;-85
2020/12/06 01:24:52;;;;;;;18.05;12.98;;;5.70;99.90;;;;;;5030120;28;20350;-85
2020/12/06 01:27:19;;;;;;;19.92;13.75;;;5.20;99.90;;;;;;5030601;28;20197;-85
2020/12/06 01:29:46;;;;;;;19.42;14.25;;;5.20;99.90;;;;;;5031600;28;20335;-85
2020/12/06 01:32:12;;;;;;;14.80;10.48;;;5.20;99.90;;;;;;5029901;28;20209;-85
2020/12/06 01:34:39;;;;;;;17.83;13.88;;;5.10;99.90;;;;;;5045636;28;20196;-86
2020/12/06 01:37:05;;;;;;;18.35;12.25;;;5.20;99.90;;;;;;5045080;28;20188;-86
2020/12/06 01:39:32;;;;;;;15.55;12.43;;;4.90;99.90;;;;;;5050229;28;20223;-86
2020/12/06 01:41:58;;;;;;;17.58;13.57;;;5.30;99.90;;;;;;5033608;28;20196;-85
2020/12/06 01:44:26;;;;;;;17.75;12.30;;;4.40;99.90;;;;;;5036862;28;20735;-86
2020/12/06 01:46:54;;;;;;;21.05;14.90;;;4.60;99.90;;;;;;5049586;28;20542;-85
2020/12/06 01:49:22;;;;;;;19.52;14.68;;;5.30;99.90;;;;;;5050150;28;20200;-85
2020/12/06 01:51:54;;;;;;;20.40;16.08;;;4.60;99.90;;;;;;5035522;28;20474;-85
2020/12/06 01:54:20;;;;;;;22.75;16.80;;;4.50;99.90;;;;;;5034051;28;20238;-85
2020/12/06 01:56:47;;;;;;;24.17;15.77;;;4.70;99.90;;;;;;5049601;28;20262;-86
2020/12/06 01:59:14;;;;;;;23.80;16.73;;;4.90;99.90;;;;;;5048561;28;20249;-86
2020/12/06 02:01:42;;;;;;;20.17;17.50;;;4.80;99.90;;;;;;5042798;28;20319;-85
2020/12/06 02:04:10;;;;;;;22.25;16.77;;;5.00;99.90;;;;;;5049028;28;20207;-86
2020/12/06 02:06:38;;;;;;;23.90;17.38;;;5.00;99.90;;;;;;5044020;28;20288;-85
2020/12/06 02:09:10;;;;;;;21.85;16.70;;;5.10;99.90;;;;;;5067529;28;20238;-86
2020/12/06 02:11:39;;;;;;;24.65;17.88;;;5.10;99.90;;;;;;5035617;28;20984;-86
2020/12/06 02:14:10;;;;;;;24.60;17.45;;;5.00;99.90;;;;;;5045173;28;20208;-86
2020/12/06 02:16:38;;;;;;;21.73;16.42;;;4.90;99.90;;;;;;5042551;28;20212;-86
2020/12/06 02:19:07;;;;;;;26.67;17.48;;;5.10;99.90;;;;;;5042012;28;20654;-86
2020/12/06 02:21:38;;;;;;;26.17;19.05;;;5.10;99.90;;;;;;5037832;28;20220;-85
2020/12/06 02:24:08;;;;;;;26.60;16.88;;;5.10;99.90;;;;;;5052837;28;20680;-85
2020/12/06 02:26:39;;;;;;;24.65;16.27;;;5.10;99.90;;;;;;5053454;28;20227;-86
2020/12/06 02:29:06;;;;;;;21.88;16.77;;;4.70;99.90;;;;;;5046815;28;20203;-86
2020/12/06 02:31:35;;;;;;;28.98;18.83;;;4.70;99.90;;;;;;5038142;28;20251;-86
2020/12/06 02:34:03;;;;;;;25.20;18.40;;;4.60;99.90;;;;;;5039166;28;20669;-86
2020/12/06 02:36:31;;;;;;;24.20;17.08;;;4.60;99.90;;;;;;5042119;28;20203;-86
2020/12/06 02:39:00;;;;;;;24.30;17.40;;;4.50;99.90;;;;;;5052950;28;20294;-87
2020/12/06 02:41:36;;;;;;;23.42;17.15;;;4.70;99.90;;;;;;5036306;28;20693;-86
2020/12/06 02:44:03;;;;;;;22.92;15.70;;;4.50;99.90;;;;;;5047906;28;20210;-86
2020/12/06 02:46:29;;;;;;;21.88;15.77;;;4.30;99.90;;;;;;5039853;28;20188;-85
2020/12/06 02:48:56;;;;;;;19.23;15.63;;;4.30;99.90;;;;;;5034637;28;20216;-86
2020/12/06 02:51:22;;;;;;;24.70;18.73;;;5.50;99.90;;;;;;5043594;28;20594;-85
2020/12/06 02:53:49;;;;;;;21.90;16.75;;;4.50;99.90;;;;;;5046267;28;20204;-85
2020/12/06 02:56:16;;;;;;;21.08;16.30;;;4.20;99.90;;;;;;5032839;28;20201;-86
2020/12/06 02:58:43;;;;;;;25.42;18.10;;;4.20;99.90;;;;;;5040028;28;20250;-85
2020/12/06 03:01:09;;;;;;;24.05;17.45;;;4.10;99.90;;;;;;5038799;28;20290;-85
2020/12/06 03:03:36;;;;;;;22.65;16.05;;;4.00;99.90;;;;;;5052460;28;20204;-86
2020/12/06 03:06:02;;;;;;;23.50;17.92;;;3.80;99.90;;;;;;5046506;28;20742;-85
2020/12/06 03:08:29;;;;;;;25.00;19.45;;;3.70;99.90;;;;;;5052039;28;20196;-86
2020/12/06 03:10:56;;;;;;;28.25;17.92;;;3.80;99.90;;;;;;5047330;28;20635;-86
2020/12/06 03:13:23;;;;;;;24.05;17.50;;;4.30;99.90;;;;;;5049290;28;20724;-86
2020/12/06 03:15:49;;;;;;;30.77;20.58;;;4.20;99.90;;;;;;5041294;28;20200;-86
2020/12/06 03:18:16;;;;;;;27.88;19.10;;;3.90;99.90;;;;;;5043253;28;20201;-85
2020/12/06 03:20:42;;;;;;;26.90;18.92;;;4.40;99.90;;;;;;5043541;28;20685;-86
2020/12/06 03:23:09;;;;;;;32.88;19.15;;;4.10;99.90;;;;;;5043393;28;20200;-86
2020/12/06 03:25:35;;;;;;;28.50;18.90;;;3.80;99.90;;;;;;5041427;28;20185;-86
2020/12/06 03:28:02;;;;;;;27.10;19.67;;;3.80;99.90;;;;;;5049844;28;20204;-86
2020/12/06 03:30:29;;;;;;;37.90;19.45;;;4.10;99.90;;;;;;5050259;28;20578;-86
2020/12/06 03:32:55;;;;;;;30.13;21.52;;;4.00;99.90;;;;;;5048149;28;20604;-86
2020/12/06 03:35:22;;;;;;;28.35;17.05;;;4.00;99.90;;;;;;5037963;28;20199;-85
2020/12/06 03:37:48;;;;;;;35.42;20.73;;;4.50;99.90;;;;;;5050260;28;20200;-86
2020/12/06 03:40:15;;;;;;;29.33;20.33;;;4.40;99.90;;;;;;5036476;28;20247;-85
2020/12/06 03:42:42;;;;;;;29.23;21.67;;;4.50;99.90;;;;;;5030943;28;20259;-86
2020/12/06 03:45:08;;;;;;;33.50;21.55;;;4.90;99.90;;;;;;5051660;28;20245;-86
2020/12/06 03:47:36;;;;;;;35.53;22.95;;;4.30;99.90;;;;;;5033691;28;20263;-85
2020/12/06 03:50:03;;;;;;;34.65;22.08;;;3.80;99.90;;;;;;5047675;28;20223;-85
2020/12/06 03:52:29;;;;;;;34.60;22.27;;;3.60;99.90;;;;;;5031418;28;20247;-85
2020/12/06 03:54:55;;;;;;;30.75;21.48;;;3.60;99.90;;;;;;5033567;28;20601;-86
2020/12/06 03:57:22;;;;;;;37.95;21.65;;;3.50;99.90;;;;;;5032306;28;20192;-84
2020/12/06 03:59:48;;;;;;;32.65;21.90;;;3.60;99.90;;;;;;5033572;28;20204;-86
2020/12/06 04:02:15;;;;;;;34.97;21.15;;;3.40;99.90;;;;;;5035993;28;20686;-86
2020/12/06 04:04:43;;;;;;;29.13;20.35;;;3.50;99.90;;;;;;5051598;28;20336;-86
2020/12/06 04:07:10;;;;;;;27.42;19.95;;;3.50;99.90;;;;;;5047589;28;20200;-86
2020/12/06 04:09:36;;;;;;;33.85;20.23;;;3.70;99.90;;;;;;5031775;28;20223;-85
2020/12/06 04:12:03;;;;;;;35.03;21.90;;;3.60;99.90;;;;;;5048601;28;20195;-85
2020/12/06 04:14:30;;;;;;;32.38;19.55;;;3.70;99.90;;;;;;5050385;28;20295;-85
2020/12/06 04:16:57;;;;;;;28.45;19.55;;;4.00;99.90;;;;;;5050999;28;20665;-86
2020/12/06 04:19:23;;;;;;;35.83;20.25;;;4.30;99.90;;;;;;5050392;28;20200;-86
2020/12/06 04:21:51;;;;;;;33.95;20.85;;;4.30;99.90;;;;;;5033602;28;20232;-86
2020/12/06 04:24:17;;;;;;;36.83;20.60;;;4.20;99.90;;;;;;5030064;28;20934;-85
2020/12/06 04:26:44;;;;;;;31.92;19.38;;;4.50;99.90;;;;;;5033293;28;20685;-86
2020/12/06 04:29:11;;;;;;;31.80;19.40;;;4.50;99.90;;;;;;5034691;28;20193;-86
2020/12/06 04:31:37;;;;;;;32.25;18.80;;;4.70;99.90;;;;;;5046082;28;20762;-86
2020/12/06 04:34:04;;;;;;;32.17;20.45;;;4.20;99.90;;;;;;5039999;28;20288;-86
2020/12/06 04:36:31;;;;;;;41.70;19.25;;;4.30;99.90;;;;;;5036376;28;20197;-86
2020/12/06 04:39:01;;;;;;;46.28;20.75;;;4.40;99.90;;;;;;5040015;28;20690;-85
2020/12/06 04:41:31;;;;;;;52.95;20.85;;;4.30;99.90;;;;;;5034952;28;20228;-86
2020/12/06 04:43:59;;;;;;;55.55;21.55;;;5.60;99.90;;;;;;5039585;28;20276;-85
2020/12/06 04:46:28;;;;;;;33.60;19.42;;;4.20;99.90;;;;;;5034863;28;20676;-85
2020/12/06 04:49:07;;;;;;;113.07;22.50;;;4.10;99.90;;;;;;5047323;28;20690;-85
2020/12/06 04:51:41;;;;;;;63.78;23.08;;;3.70;99.90;;;;;;5032216;28;20208;-85
2020/12/06 04:54:11;;;;;;;86.10;22.55;;;3.90;99.90;;;;;;5031297;28;20197;-86
2020/12/06 04:56:40;;;;;;;131.75;24.08;;;4.00;99.90;;;;;;5031125;28;20275;-85
2020/12/06 04:59:07;;;;;;;133.40;24.58;;;4.00;99.90;;;;;;5035973;28;20205;-86
2020/12/06 05:01:37;;;;;;;118.68;23.42;;;4.10;99.90;;;;;;5044514;28;20306;-85
2020/12/06 05:04:10;;;;;;;58.20;20.58;;;4.10;99.90;;;;;;5049560;28;20249;-86
2020/12/06 05:06:39;;;;;;;81.50;23.95;;;4.10;99.90;;;;;;5034182;28;20197;-86
2020/12/06 05:09:10;;;;;;;145.57;24.65;;;4.20;99.90;;;;;;5041315;28;20196;-86
2020/12/06 05:11:40;;;;;;;82.40;22.58;;;4.30;99.90;;;;;;5029627;28;20196;-86
2020/12/06 05:14:08;;;;;;;161.23;27.65;;;4.50;99.90;;;;;;5030545;28;20211;-86
2020/12/06 05:16:36;;;;;;;99.78;23.88;;;4.30;99.90;;;;;;5031428;28;20254;-85
2020/12/06 05:19:04;;;;;;;111.35;25.58;;;4.10;99.90;;;;;;5030583;28;20283;-85
2020/12/06 05:21:34;;;;;;;107.40;26.05;;;3.70;99.90;;;;;;5046426;28;20238;-85
2020/12/06 05:24:02;;;;;;;121.65;23.80;;;3.20;99.90;;;;;;5045784;28;20212;-85
2020/12/06 05:26:31;;;;;;;134.15;26.80;;;3.10;99.90;;;;;;5034061;28;20200;-86
2020/12/06 05:28:59;;;;;;;64.15;20.83;;;3.30;99.90;;;;;;5045307;28;20196;-85
2020/12/06 05:31:27;;;;;;;52.63;21.20;;;3.50;99.90;;;;;;5036224;28;20244;-86
2020/12/06 05:33:55;;;;;;;128.18;25.02;;;3.70;99.90;;;;;;5042451;28;20224;-87
2020/12/06 05:36:22;;;;;;;195.30;28.90;;;3.40;99.90;;;;;;5042588;28;20628;-86
2020/12/06 05:38:50;;;;;;;91.93;23.85;;;3.50;99.90;;;;;;5033275;28;20652;-85
2020/12/06 05:41:17;;;;;;;71.13;23.15;;;3.50;99.90;;;;;;5038455;28;20254;-86
2020/12/06 05:43:45;;;;;;;145.25;26.48;;;3.70;99.90;;;;;;5034020;28;20192;-86
2020/12/06 05:46:14;;;;;;;48.90;21.98;;;3.60;99.90;;;;;;5045025;28;20288;-86
2020/12/06 05:48:42;;;;;;;40.03;21.90;;;3.70;99.90;;;;;;5052264;28;20659;-86
2020/12/06 05:51:10;;;;;;;64.35;22.92;;;3.80;99.90;;;;;;5036212;28;20204;-85
2020/12/06 05:53:37;;;;;;;35.08;19.20;;;3.90;99.90;;;;;;5046570;28;20555;-86
2020/12/06 05:56:08;;;;;;;43.75;20.90;;;3.80;99.90;;;;;;5032519;28;20192;-85
2020/12/06 05:58:35;;;;;;;52.05;23.15;;;3.90;99.90;;;;;;5044630;28;20692;-86
2020/12/06 06:01:03;;;;;;;35.10;20.08;;;3.40;99.90;;;;;;5042957;28;20242;-86
2020/12/06 06:03:36;;;;;;;38.97;20.70;;;3.30;99.90;;;;;;5031746;28;20204;-86
2020/12/06 06:06:05;;;;;;;42.97;20.77;;;3.20;99.90;;;;;;5044464;28;20204;-86
2020/12/06 06:08:36;;;;;;;46.10;22.00;;;3.10;99.90;;;;;;5050818;28;20710;-87
2020/12/06 06:11:22;;;;;;;41.10;20.55;;;3.60;99.90;;;;;;5050639;28;20292;-86
2020/12/06 06:13:58;;;;;;;42.22;22.15;;;3.60;99.90;;;;;;5042712;28;20300;-86
2020/12/06 06:16:28;;;;;;;48.25;20.75;;;3.40;99.90;;;;;;5032668;28;20254;-86
2020/12/06 06:18:55;;;;;;;38.65;19.85;;;3.50;99.90;;;;;;5043303;28;20658;-86
2020/12/06 06:21:26;;;;;;;34.95;19.85;;;3.30;99.90;;;;;;5049392;28;20232;-85
2020/12/06 06:23:54;;;;;;;40.67;19.58;;;3.50;99.90;;;;;;5043435;28;20268;-85
2020/12/06 06:26:26;;;;;;;39.05;22.00;;;3.60;99.90;;;;;;5047969;28;20197;-86
2020/12/06 06:28:53;;;;;;;41.75;21.90;;;3.60;99.90;;;;;;5040600;28;20200;-86
2020/12/06 06:31:21;;;;;;;42.22;22.33;;;3.80;99.90;;;;;;5048032;28;20195;-86
2020/12/06 06:33:50;;;;;;;38.80;20.52;;;4.00;99.90;;;;;;5053092;28;20553;-86
2020/12/06 06:36:20;;;;;;;47.63;19.98;;;4.00;99.90;;;;;;5048318;28;20196;-83
2020/12/06 06:38:47;;;;;;;60.80;21.73;;;4.00;99.90;;;;;;5042571;28;20283;-86
2020/12/06 06:41:14;;;;;;;52.33;21.00;;;4.10;99.90;;;;;;5042035;28;20612;-86
2020/12/06 06:43:42;;;;;;;44.00;20.20;;;4.30;99.90;;;;;;5051302;28;20743;-86
2020/12/06 06:46:14;;;;;;;44.53;21.88;;;4.30;99.90;;;;;;5047917;28;20196;-86
2020/12/06 06:48:41;;;;;;;40.60;18.90;;;4.40;99.90;;;;;;5044721;28;20197;-86
2020/12/06 06:51:17;;;;;;;44.22;22.98;;;4.20;99.90;;;;;;5039230;28;20200;-85
2020/12/06 06:53:43;;;;;;;67.68;20.33;;;4.00;99.90;;;;;;5050604;28;20196;-86
2020/12/06 06:56:10;;;;;;;46.00;19.15;;;4.10;99.90;;;;;;5036943;28;20192;-87
2020/12/06 06:58:37;;;;;;;45.70;19.65;;;4.20;99.90;;;;;;5047137;28;20200;-86
2020/12/06 07:01:17;;;;;;;49.45;19.10;;;4.10;99.90;;;;;;5041730;28;20252;-86
2020/12/06 07:03:44;;;;;;;41.85;19.05;;;3.80;99.90;;;;;;5032145;28;20208;-86
2020/12/06 07:06:12;;;;;;;37.63;19.23;;;4.00;99.90;;;;;;5033489;28;20204;-86
2020/12/06 07:08:40;;;;;;;53.25;19.75;;;4.00;99.90;;;;;;5032810;28;20201;-86
2020/12/06 07:11:06;;;;;;;52.50;18.05;;;5.20;99.90;;;;;;5040783;28;20196;-86
2020/12/06 07:13:33;;;;;;;45.95;19.17;;;4.00;99.90;;;;;;5052046;28;20208;-86
2020/12/06 07:16:08;;;;;;;53.08;17.73;;;3.80;99.90;;;;;;5051625;28;20188;-88
2020/12/06 07:18:38;;;;;;;41.75;17.52;;;3.90;99.90;;;;;;5044051;28;20215;-87
2020/12/06 07:21:05;;;;;;;58.35;17.48;;;4.70;99.90;;;;;;5045160;28;20289;-87
2020/12/06 07:23:32;;;;;;;52.15;19.38;;;4.00;99.90;;;;;;5037265;28;20188;-88
2020/12/06 07:25:59;;;;;;;54.28;17.42;;;4.00;99.90;;;;;;5048809;28;20257;-88
2020/12/06 07:28:25;;;;;;;43.75;17.10;;;4.40;99.90;;;;;;5051433;28;20192;-87
2020/12/06 07:30:52;;;;;;;58.83;16.52;;;3.70;99.90;;;;;;5052317;28;20199;-88
2020/12/06 07:33:18;;;;;;;38.78;17.33;;;3.80;99.90;;;;;;5051168;28;20192;-87
2020/12/06 07:35:44;;;;;;;52.92;17.17;;;3.90;99.90;;;;;;5047961;28;20196;-88
2020/12/06 07:38:15;;;;;;;53.25;16.63;;;3.80;99.90;;;;;;5050144;28;20215;-87
2020/12/06 07:40:42;;;;;;;47.13;14.68;;;4.40;99.90;;;;;;5047374;28;20289;-87
2020/12/06 07:43:12;;;;;;;53.15;14.20;;;3.60;99.90;;;;;;5042063;28;20196;-87
2020/12/06 07:45:39;;;;;;;38.70;14.95;;;3.30;99.90;;;;;;5044536;28;20642;-87
2020/12/06 07:48:06;;;;;;;34.78;14.00;;;4.30;99.90;;;;;;5030723;28;20239;-87
2020/12/06 07:50:32;;;;;;;47.20;16.13;;;3.80;99.90;;;;;;5043915;28;20258;-87
2020/12/06 07:53:02;;;;;;;41.30;14.75;;;3.90;99.90;;;;;;5044149;28;20201;-87
2020/12/06 07:55:28;;;;;;;56.80;14.25;;;3.90;99.90;;;;;;5037403;28;20242;-87
2020/12/06 07:58:02;;;;;;;30.48;14.70;;;3.90;99.90;;;;;;5033162;28;20189;-87
2020/12/06 08:00:36;;;;;;;63.40;22.45;;;4.10;99.90;;;;;;5045862;28;20216;-87
2020/12/06 08:03:04;;;;;;;42.78;17.08;;;4.00;99.90;;;;;;5038258;28;20291;-87
2020/12/06 08:05:35;;;;;;;27.40;16.35;;;4.00;99.90;;;;;;5037338;28;20197;-86
2020/12/06 08:08:06;;;;;;;72.97;13.38;;;4.20;99.90;;;;;;5050462;28;20665;-87
2020/12/06 08:10:35;;;;;;;37.33;13.70;;;4.20;99.90;;;;;;5042238;28;20201;-87
2020/12/06 08:13:02;;;;;;;28.08;12.57;;;4.20;99.90;;;;;;5038999;28;20249;-88
2020/12/06 08:15:29;;;;;;;36.35;14.52;;;4.20;99.90;;;;;;5049203;28;20200;-88
2020/12/06 08:17:56;;;;;;;42.88;18.15;;;4.90;99.90;;;;;;5044386;28;20200;-87
2020/12/06 08:20:24;;;;;;;47.63;17.85;;;4.20;99.90;;;;;;5046812;28;20196;-88
2020/12/06 08:22:53;;;;;;;30.48;14.68;;;4.40;99.90;;;;;;5049178;28;20204;-88
2020/12/06 08:25:24;;;;;;;42.15;16.33;;;4.50;99.90;;;;;;5039070;28;20234;-88
2020/12/06 08:27:51;;;;;;;34.10;14.48;;;5.50;99.90;;;;;;5047746;28;20196;-87
2020/12/06 08:30:20;;;;;;;33.00;14.43;;;4.50;99.90;;;;;;5047287;28;20637;-87
2020/12/06 08:32:54;;;;;;;39.10;15.70;;;4.40;99.90;;;;;;5048796;28;20200;-88
2020/12/06 08:35:22;;;;;;;27.30;14.40;;;4.60;99.90;;;;;;5040573;28;20196;-87
2020/12/06 08:37:48;;;;;;;30.58;13.30;;;4.50;99.90;;;;;;5029818;28;20209;-88
2020/12/06 08:40:15;;;;;;;34.80;12.98;;;4.50;99.90;;;;;;5036669;28;20258;-88
2020/12/06 08:42:41;;;;;;;32.85;14.95;;;4.40;99.90;;;;;;5035802;28;20200;-88
2020/12/06 08:45:08;;;;;;;29.13;15.20;;;4.60;99.90;;;;;;5038111;28;20277;-88
2020/12/06 08:47:42;;;;;;;25.90;14.90;;;4.70;99.90;;;;;;5050178;28;20285;-87
2020/12/06 08:50:11;;;;;;;29.85;15.70;;;4.60;99.90;;;;;;5041652;28;20187;-88
2020/12/06 08:52:38;;;;;;;23.25;14.10;;;4.80;99.90;;;;;;5034004;28;20236;-86
2020/12/06 08:55:27;;;;;;;24.35;14.40;;;4.90;99.90;;;;;;5049433;28;20249;-87
2020/12/06 08:57:55;;;;;;;25.73;14.05;;;5.10;99.90;;;;;;5041126;28;20253;-88
2020/12/06 09:00:22;;;;;;;24.58;14.38;;;5.10;99.90;;;;;;5046543;28;20230;-88
2020/12/06 09:02:49;;;;;;;27.92;15.32;;;4.80;99.90;;;;;;5031771;28;20296;-88
2020/12/06 09:05:15;;;;;;;27.45;14.35;;;4.80;99.90;;;;;;5045828;28;20216;-86
2020/12/06 09:07:42;;;;;;;24.27;12.98;;;5.30;99.90;;;;;;5034027;28;20193;-86
2020/12/06 09:10:09;;;;;;;23.15;12.13;;;4.80;99.90;;;;;;5032235;28;20209;-86
2020/12/06 09:12:37;;;;;;;21.80;12.40;;;4.80;99.90;;;;;;5044775;28;20266;-87
2020/12/06 09:15:05;;;;;;;20.20;11.65;;;4.90;99.90;;;;;;5032736;28;20200;-86
2020/12/06 09:17:32;;;;;;;18.00;12.60;;;4.10;99.90;;;;;;5049983;28;20199;-86
2020/12/06 09:19:59;;;;;;;22.60;13.15;;;3.80;99.90;;;;;;5037721;28;20246;-86
2020/12/06 09:22:26;;;;;;;26.23;11.05;;;4.10;99.90;;;;;;5048217;28;20273;-86
2020/12/06 09:24:52;;;;;;;18.50;12.02;;;4.20;99.90;;;;;;5045514;28;20192;-86
2020/12/06 09:27:18;;;;;;;20.25;10.32;;;5.00;99.90;;;;;;5034241;28;20213;-86
2020/12/06 09:29:45;;;;;;;16.10;9.63;;;4.20;99.90;;;;;;5030406;28;20196;-86
2020/12/06 09:32:12;;;;;;;16.73;11.20;;;4.40;99.90;;;;;;5048597;28;20232;-86
2020/12/06 09:34:39;;;;;;;20.27;11.32;;;4.60;99.90;;;;;;5035967;28;20554;-86
2020/12/06 09:37:06;;;;;;;16.42;10.73;;;4.70;99.90;;;;;;5032661;28;21034;-87
2020/12/06 09:39:32;;;;;;;17.40;9.25;;;5.50;99.90;;;;;;5048185;28;20595;-86
2020/12/06 09:41:59;;;;;;;17.80;10.40;;;4.90;99.90;;;;;;5049092;28;20309;-86
2020/12/06 09:44:25;;;;;;;14.48;9.40;;;5.20;99.90;;;;;;5045242;28;20253;-86
2020/12/06 09:46:52;;;;;;;16.35;11.35;;;4.70;99.90;;;;;;5049340;28;20238;-86
2020/12/06 09:49:18;;;;;;;16.70;10.88;;;4.90;99.90;;;;;;5042184;28;20193;-86
2020/12/06 09:51:44;;;;;;;17.38;10.40;;;4.60;99.90;;;;;;5042750;28;20196;-86
2020/12/06 09:54:12;;;;;;;13.90;10.07;;;4.60;99.90;;;;;;5043197;28;20204;-86
2020/12/06 09:56:38;;;;;;;16.30;9.07;;;4.50;99.90;;;;;;5028990;28;20570;-86
2020/12/06 09:59:05;;;;;;;13.40;8.73;;;4.40;99.90;;;;;;5029695;28;20607;-85
2020/12/06 10:01:31;;;;;;;12.27;9.30;;;4.30;99.90;;;;;;5027589;28;20213;-85
2020/12/06 10:03:57;;;;;;;14.13;8.65;;;5.50;99.90;;;;;;5027619;28;20270;-85
2020/12/06 10:06:24;;;;;;;13.88;9.00;;;4.30;99.90;;;;;;5027437;28;20204;-85
2020/12/06 10:08:51;;;;;;;13.85;9.05;;;4.40;99.90;;;;;;5028099;28;20267;-85
2020/12/06 10:11:19;;;;;;;13.10;9.00;;;4.60;99.90;;;;;;5029351;28;20209;-86
2020/12/06 10:13:45;;;;;;;13.60;8.75;;;4.40;99.90;;;;;;5032409;28;20259;-86
2020/12/06 10:16:14;;;;;;;13.82;10.25;;;4.40;99.90;;;;;;5033347;28;20213;-85
2020/12/06 10:18:40;;;;;;;12.55;9.18;;;5.50;99.90;;;;;;5032770;28;20205;-86
2020/12/06 10:21:07;;;;;;;15.23;9.75;;;4.50;99.90;;;;;;5033043;28;20266;-83
2020/12/06 10:23:34;;;;;;;12.55;8.80;;;4.50;99.90;;;;;;5032955;28;20692;-85
2020/12/06 10:26:00;;;;;;;11.48;8.98;;;4.40;99.90;;;;;;5045679;28;20200;-86
2020/12/06 10:28:28;;;;;;;16.63;9.00;;;4.50;99.90;;;;;;5053015;28;20254;-86
2020/12/06 10:30:54;;;;;;;15.40;10.90;;;4.60;99.90;;;;;;5053435;28;20204;-86
2020/12/06 10:33:20;;;;;;;14.07;10.50;;;5.10;99.90;;;;;;5051962;28;20602;-86
2020/12/06 10:35:47;;;;;;;13.05;9.80;;;4.80;99.90;;;;;;5052847;28;20192;-86
2020/12/06 10:38:13;;;;;;;9.30;8.10;;;4.60;99.90;;;;;;5052972;28;20196;-85
2020/12/06 10:40:40;;;;;;;15.43;8.20;;;4.40;99.90;;;;;;5052676;28;20199;-86
2020/12/06 10:43:07;;;;;;;11.77;8.35;;;4.70;99.90;;;;;;5052302;28;20262;-86
2020/12/06 10:45:34;;;;;;;13.55;10.65;;;4.20;99.90;;;;;;5052714;28;20196;-85
2020/12/06 10:48:02;;;;;;;8.98;7.47;;;4.20;99.90;;;;;;5052455;28;20212;-85
2020/12/06 10:50:28;;;;;;;12.20;8.43;;;4.30;99.90;;;;;;5052681;28;20207;-85
2020/12/06 10:52:55;;;;;;;10.20;7.20;;;4.60;99.90;;;;;;5052133;28;20200;-85
2020/12/06 10:55:24;;;;;;;8.90;7.72;;;4.60;99.90;;;;;;5052563;28;20215;-85
2020/12/06 10:57:52;;;;;;;12.48;8.70;;;4.60;99.90;;;;;;5051914;28;20200;-85
2020/12/06 11:00:19;;;;;;;7.80;7.03;;;4.60;99.90;;;;;;5052491;28;20521;-85
2020/12/06 11:02:46;;;;;;;6.85;6.15;;;4.50;99.90;;;;;;5052046;28;20766;-85
2020/12/06 11:05:13;;;;;;;8.52;7.70;;;4.50;99.90;;;;;;5052711;28;20254;-85
2020/12/06 11:07:39;;;;;;;11.40;8.63;;;4.50;99.90;;;;;;5052618;28;20248;-85
2020/12/06 11:10:06;;;;;;;9.95;8.23;;;4.30;99.90;;;;;;5052686;28;20548;-85
2020/12/06 11:12:32;;;;;;;7.72;7.00;;;4.30;99.90;;;;;;5051618;28;20669;-85
2020/12/06 11:14:58;;;;;;;7.95;7.25;;;4.40;99.90;;;;;;5052441;28;20196;-85
2020/12/06 11:17:29;;;;;;;8.80;7.90;;;4.60;99.90;;;;;;5052850;28;20627;-85
2020/12/06 11:19:58;;;;;;;8.13;7.32;;;4.40;99.90;;;;;;5052808;28;20759;-85
2020/12/06 11:22:24;;;;;;;10.27;6.90;;;4.70;99.90;;;;;;5051595;28;20228;-85
2020/12/06 11:24:50;;;;;;;9.82;8.82;;;4.60;99.90;;;;;;5052166;28;20181;-85
2020/12/06 11:27:17;;;;;;;8.43;7.25;;;4.40;99.90;;;;;;5052187;28;20200;-84
2020/12/06 11:33:06;;;;;;;10.23;9.07;;;4.50;99.90;;;;;;5043848;28;20582;-85
2020/12/06 11:35:34;;;;;;;13.35;9.40;;;4.70;99.90;;;;;;5051960;28;20200;-85
2020/12/06 11:38:01;;;;;;;13.57;10.63;;;4.70;99.90;;;;;;5051943;28;20243;-85
2020/12/06 11:40:27;;;;;;;9.23;8.32;;;4.80;99.90;;;;;;5052044;28;20287;-86
2020/12/06 11:42:54;;;;;;;12.50;11.20;;;4.70;99.90;;;;;;5051231;28;20223;-85
2020/12/06 11:45:20;;;;;;;22.45;18.33;;;4.70;99.90;;;;;;5051634;28;20200;-84
2020/12/06 11:47:47;;;;;;;15.55;12.68;;;4.90;99.90;;;;;;5051579;28;20191;-85
2020/12/06 11:50:13;;;;;;;11.07;8.85;;;4.70;99.90;;;;;;5051797;28;20192;-85
2020/12/06 11:52:43;;;;;;;11.45;8.70;;;5.10;99.90;;;;;;5051382;28;20208;-85
2020/12/06 11:55:10;;;;;;;11.32;9.55;;;4.90;99.90;;;;;;5052013;28;20211;-85
2020/12/06 11:57:37;;;;;;;13.80;8.50;;;4.90;99.90;;;;;;5051535;28;20303;-85
2020/12/06 12:00:04;;;;;;;10.55;9.50;;;5.00;99.90;;;;;;5051124;28;20200;-85
2020/12/06 12:02:31;;;;;;;14.82;13.25;;;4.90;99.90;;;;;;5050368;28;20226;-85
2020/12/06 12:04:57;;;;;;;13.60;10.88;;;5.10;99.90;;;;;;5051313;28;20208;-85
2020/12/06 12:07:24;;;;;;;14.50;13.00;;;4.90;99.90;;;;;;5051301;28;20665;-85
2020/12/06 12:09:51;;;;;;;12.15;9.48;;;5.10;99.90;;;;;;5051174;28;20245;-86
2020/12/06 12:12:18;;;;;;;10.20;8.80;;;5.20;99.90;;;;;;5050446;28;20211;-85
2020/12/06 12:14:45;;;;;;;13.43;11.35;;;5.20;99.90;;;;;;5051027;28;20237;-85
2020/12/06 12:17:11;;;;;;;13.45;11.10;;;5.10;99.90;;;;;;5051068;28;20592;-85
2020/12/06 12:19:37;;;;;;;25.10;21.33;;;5.90;99.90;;;;;;5051269;28;20223;-85
2020/12/06 12:22:05;;;;;;;16.85;12.75;;;5.60;99.90;;;;;;5050412;28;20231;-85
2020/12/06 12:24:31;;;;;;;12.65;10.32;;;5.70;99.90;;;;;;5051147;28;20238;-85
2020/12/06 12:26:59;;;;;;;11.93;9.60;;;6.00;99.90;;;;;;5050705;28;20203;-84
2020/12/06 12:29:25;;;;;;;9.68;8.70;;;5.50;99.90;;;;;;5051208;28;20200;-85
2020/12/06 12:31:52;;;;;;;12.90;9.02;;;5.70;99.90;;;;;;5050350;28;20204;-86
2020/12/06 12:34:19;;;;;;;11.90;9.70;;;6.70;99.90;;;;;;5050375;28;20230;-85
2020/12/06 12:36:46;;;;;;;16.48;11.20;;;5.70;99.90;;;;;;5051029;28;20195;-85
2020/12/06 12:39:13;;;;;;;9.27;8.38;;;5.70;99.90;;;;;;5051172;28;20262;-85
2020/12/06 12:41:39;;;;;;;15.40;9.50;;;5.70;99.90;;;;;;5049797;28;20219;-85
2020/12/06 12:44:07;;;;;;;11.00;9.90;;;5.50;99.90;;;;;;5050853;28;20271;-85